createdAt,value
2023-04-20T00:02:03.632Z,2.75
2023-04-20T00:07:07.542Z,2.80
2023-04-20T00:12:11.160Z,2.72
2023-04-20T00:17:14.186Z,2.72
2023-04-20T00:22:17.363Z,2.55
2023-04-20T00:27:21.467Z,2.72
2023-04-20T00:32:24.755Z,3.08
2023-04-20T00:37:28.874Z,2.67
2023-04-20T00:42:32.589Z,3.53
2023-04-20T00:47:36.010Z,2.45
2023-04-20T00:52:40.711Z,2.78
2023-04-20T00:57:45.226Z,2.38
2023-04-20T01:02:48.524Z,2.20
2023-04-20T01:07:52.697Z,2.42
2023-04-20T01:12:57.192Z,2.05
2023-04-20T01:18:01.174Z,2.08
2023-04-20T01:23:04.858Z,2.10
2023-04-20T01:28:09.622Z,2.47
2023-04-20T01:33:13.669Z,2.33
2023-04-20T01:38:22.394Z,2.08
2023-04-20T01:43:26.643Z,1.63
2023-04-20T01:48:29.947Z,1.27
2023-04-20T01:53:33.506Z,1.95
2023-04-20T01:58:37.462Z,1.80
2023-04-20T02:03:40.944Z,1.73
2023-04-20T02:08:47.388Z,1.90
2023-04-20T02:13:51.467Z,1.65
2023-04-20T02:18:54.988Z,1.50
2023-04-20T02:23:58.180Z,1.58
2023-04-20T02:29:03.460Z,1.98
2023-04-20T02:34:09.689Z,1.85
2023-04-20T02:39:12.956Z,1.58
2023-04-20T02:44:16.018Z,2.00
2023-04-20T02:49:19.693Z,1.88
2023-04-20T02:54:23.796Z,1.60
2023-04-20T02:59:28.109Z,1.67
2023-04-20T03:04:46.365Z,2.25
2023-04-20T03:09:56.341Z,2.35
2023-04-20T03:15:22.974Z,2.00
2023-04-20T03:20:36.958Z,2.15
2023-04-20T03:25:40.510Z,1.80
2023-04-20T03:30:50.059Z,1.70
2023-04-20T03:35:53.630Z,1.95
2023-04-20T03:40:57.839Z,1.83
2023-04-20T03:46:01.544Z,2.00
2023-04-20T03:51:05.250Z,1.75
2023-04-20T03:56:09.076Z,1.52
2023-04-20T04:01:13.555Z,1.73
2023-04-20T04:06:21.700Z,1.80
2023-04-20T04:11:26.378Z,1.95
2023-04-20T04:16:29.661Z,2.17
2023-04-20T04:21:34.545Z,1.75
2023-04-20T04:26:40.792Z,1.63
2023-04-20T04:31:44.611Z,1.77
2023-04-20T04:36:52.963Z,1.75
2023-04-20T04:42:04.853Z,1.40
2023-04-20T04:47:18.182Z,2.08
2023-04-20T04:52:22.310Z,1.95
2023-04-20T04:57:26.829Z,1.60
2023-04-20T05:02:30.837Z,1.70
2023-04-20T05:07:34.924Z,1.77
2023-04-20T05:12:39.076Z,1.50
2023-04-20T05:17:42.981Z,1.73
2023-04-20T05:22:46.096Z,1.92
2023-04-20T05:27:52.252Z,2.22
2023-04-20T05:32:56.045Z,2.95
2023-04-20T05:38:03.063Z,2.83
2023-04-20T05:43:07.328Z,2.33
2023-04-20T05:48:11.229Z,2.67
2023-04-20T05:53:15.212Z,2.10
2023-04-20T05:58:20.023Z,5.38
2023-04-20T06:03:23.666Z,6.85
2023-04-20T06:08:27.822Z,5.30
2023-04-20T06:13:31.319Z,4.78
2023-04-20T06:18:37.804Z,2.67
2023-04-20T06:23:43.743Z,1.80
2023-04-20T06:28:48.578Z,1.70
2023-04-20T06:33:52.570Z,2.55
2023-04-20T06:38:56.667Z,6.80
2023-04-20T06:44:00.435Z,5.05
2023-04-20T06:49:05.163Z,3.70
2023-04-20T06:54:08.509Z,2.90
2023-04-20T06:59:12.452Z,2.42
2023-04-20T07:04:16.235Z,1.77
2023-04-20T07:09:20.205Z,1.92
2023-04-20T07:14:23.870Z,2.00
2023-04-20T07:19:26.965Z,2.13
2023-04-20T07:24:30.936Z,2.17
2023-04-20T07:29:34.264Z,2.45
2023-04-20T07:34:37.807Z,1.88
2023-04-20T07:39:41.474Z,1.98
2023-04-20T07:44:44.944Z,2.05
2023-04-20T07:49:48.632Z,2.20
2023-04-20T07:54:58.214Z,2.17
2023-04-20T08:00:01.331Z,3.75
2023-04-20T08:05:16.385Z,4.88
2023-04-20T08:10:20.201Z,4.50
2023-04-20T08:15:23.935Z,4.72
2023-04-20T08:20:27.314Z,4.28
2023-04-20T08:25:32.771Z,4.82
2023-04-20T08:30:36.322Z,3.85
2023-04-20T08:35:41.054Z,3.95
2023-04-20T08:40:44.840Z,2.65
2023-04-20T08:45:51.300Z,3.42
2023-04-20T08:50:55.779Z,2.25
2023-04-20T08:55:59.783Z,2.20
2023-04-20T09:01:03.645Z,2.60
2023-04-20T09:06:15.489Z,2.50
2023-04-20T09:11:27.356Z,2.20
2023-04-20T09:16:31.902Z,2.47
2023-04-20T09:21:36.141Z,1.80
2023-04-20T09:26:39.726Z,2.70
2023-04-20T09:31:43.255Z,2.25
2023-04-20T09:36:51.795Z,2.20
2023-04-20T09:42:04.494Z,2.80
2023-04-20T09:47:09.080Z,3.05
2023-04-20T09:52:19.430Z,2.65
2023-04-20T09:57:23.925Z,2.50
2023-04-20T10:02:27.597Z,2.20
2023-04-20T10:07:33.412Z,2.20
2023-04-20T10:12:48.856Z,2.30
2023-04-20T10:17:53.999Z,2.42
2023-04-20T10:23:14.616Z,2.57
2023-04-20T10:28:17.948Z,1.40
2023-04-20T10:33:23.133Z,2.05
2023-04-20T10:38:36.367Z,8.63
2023-04-20T10:43:43.709Z,3.50
2023-04-20T10:48:58.825Z,1.58
2023-04-20T10:54:09.206Z,2.25
2023-04-20T10:59:14.765Z,1.55
2023-04-20T11:04:19.364Z,1.00
2023-04-20T11:09:26.941Z,0.90
2023-04-20T11:14:34.350Z,0.70
2023-04-20T11:19:38.511Z,1.33
2023-04-20T11:24:43.114Z,1.20
2023-04-20T11:29:56.020Z,0.98
2023-04-20T11:35:06.479Z,0.80
2023-04-20T11:40:12.256Z,4.10
2023-04-20T11:45:16.417Z,0.80
2023-04-20T11:50:20.073Z,0.93
2023-04-20T11:55:23.833Z,3.60
2023-04-20T12:00:27.903Z,1.23
2023-04-20T12:05:31.511Z,0.70
2023-04-20T12:10:35.154Z,1.55
2023-04-20T12:15:39.550Z,1.40
2023-04-20T12:20:42.877Z,5.18
2023-04-20T12:25:46.911Z,1.40
2023-04-20T12:30:50.668Z,1.75
2023-04-20T12:35:54.590Z,1.30
2023-04-20T12:41:00.027Z,1.30
2023-04-20T12:46:03.457Z,1.25
2023-04-20T12:51:06.734Z,1.10
2023-04-20T12:56:09.846Z,1.13
2023-04-20T13:01:12.971Z,1.05
2023-04-20T13:06:16.789Z,1.42
2023-04-20T13:11:20.380Z,1.40
2023-04-20T13:16:24.891Z,1.08
2023-04-20T13:21:28.351Z,1.20
2023-04-20T13:26:32.489Z,1.00
2023-04-20T13:31:37.239Z,0.80
2023-04-20T13:36:41.500Z,0.90
2023-04-20T13:41:45.225Z,0.80
2023-04-20T13:46:49.376Z,1.05
2023-04-20T13:51:52.537Z,1.77
2023-04-20T13:56:56.630Z,1.85
2023-04-20T14:02:00.222Z,1.48
2023-04-20T14:07:03.866Z,1.48
2023-04-20T14:12:07.780Z,1.73
2023-04-20T14:17:11.956Z,1.65
2023-04-20T14:22:15.324Z,1.85
2023-04-20T14:27:19.532Z,1.75
2023-04-20T14:32:22.900Z,1.55
2023-04-20T14:37:27.623Z,2.17
2023-04-20T14:42:31.033Z,2.20
2023-04-20T14:47:34.157Z,2.38
2023-04-20T14:52:37.820Z,2.65
2023-04-20T14:57:41.557Z,2.22
2023-04-20T15:02:45.179Z,2.30
2023-04-20T15:07:50.939Z,2.42
2023-04-20T15:12:54.047Z,2.50
2023-04-20T15:17:58.136Z,3.03
2023-04-20T15:23:01.368Z,3.55
2023-04-20T15:28:06.768Z,3.80
2023-04-20T15:33:11.729Z,4.60
2023-04-20T15:38:15.113Z,4.22
2023-04-20T15:43:18.570Z,4.00
2023-04-20T15:48:22.272Z,4.60
2023-04-20T15:53:25.881Z,5.72
2023-04-20T15:58:30.052Z,5.40
2023-04-20T16:03:33.795Z,6.38
2023-04-20T16:08:38.167Z,6.50
2023-04-20T16:13:41.570Z,5.20
2023-04-20T16:18:45.023Z,6.47
2023-04-20T16:23:53.901Z,6.82
2023-04-20T16:28:57.967Z,6.75
2023-04-20T16:34:01.991Z,7.97
2023-04-20T16:39:06.827Z,8.15
2023-04-20T16:44:13.698Z,7.38
2023-04-20T16:49:16.825Z,7.47
2023-04-20T16:54:21.823Z,7.40
2023-04-20T16:59:25.843Z,6.88
2023-04-20T17:04:31.539Z,7.50
2023-04-20T17:09:34.690Z,6.30
2023-04-20T17:14:39.250Z,6.57
2023-04-20T17:19:42.867Z,6.93
2023-04-20T17:24:52.118Z,7.50
2023-04-20T17:29:56.233Z,7.90
2023-04-20T17:35:00.176Z,7.45
2023-04-20T17:40:05.374Z,6.07
2023-04-20T17:45:09.865Z,5.18
2023-04-20T17:50:13.717Z,3.47
2023-04-20T17:55:17.863Z,2.40
2023-04-20T18:00:21.705Z,2.65
2023-04-20T18:05:25.191Z,3.05
2023-04-20T18:10:28.981Z,3.65
2023-04-20T18:15:32.553Z,6.57
2023-04-20T18:20:36.247Z,7.45
2023-04-20T18:25:42.947Z,4.68
2023-04-20T18:30:46.860Z,4.28
2023-04-20T18:35:50.359Z,3.53
2023-04-20T18:40:54.444Z,3.25
2023-04-20T18:45:58.795Z,4.50
2023-04-20T18:51:02.132Z,9.75
2023-04-20T18:56:05.904Z,13.98
2023-04-20T19:01:09.982Z,9.90
2023-04-20T19:06:13.796Z,7.45
2023-04-20T19:11:17.654Z,6.72
2023-04-20T19:16:21.720Z,5.68
2023-04-20T19:21:25.528Z,6.30
2023-04-20T19:26:29.071Z,5.80
2023-04-20T19:31:38.102Z,8.30
2023-04-20T19:36:42.417Z,6.20
2023-04-20T19:41:46.226Z,3.25
2023-04-20T19:46:50.223Z,2.90
2023-04-20T19:51:53.881Z,3.33
2023-04-20T19:56:57.969Z,3.88
2023-04-20T20:02:01.365Z,4.72
2023-04-20T20:07:05.313Z,4.57
2023-04-20T20:12:10.725Z,3.45
2023-04-20T20:17:14.685Z,2.58
2023-04-20T20:22:18.200Z,2.63
2023-04-20T20:27:21.977Z,1.98
2023-04-20T20:32:25.697Z,2.35
2023-04-20T20:37:34.962Z,1.90
2023-04-20T20:42:40.312Z,2.20
2023-04-20T20:47:45.259Z,2.17
2023-04-20T20:52:50.224Z,1.52
2023-04-20T20:57:53.523Z,1.55
2023-04-20T21:02:57.466Z,1.40
2023-04-20T21:08:01.208Z,1.50
2023-04-20T21:13:06.231Z,0.98
2023-04-20T21:18:10.356Z,1.75
2023-04-20T21:23:13.540Z,1.40
2023-04-20T21:28:16.688Z,1.90
2023-04-20T21:33:20.398Z,2.50
2023-04-20T21:38:24.308Z,2.03
2023-04-20T21:43:27.397Z,1.48
2023-04-20T21:48:30.993Z,1.67
2023-04-20T21:53:34.462Z,1.30
2023-04-20T21:58:38.029Z,1.00
2023-04-20T22:03:41.753Z,0.80
2023-04-20T22:08:45.766Z,1.25
2023-04-20T22:13:49.550Z,1.48
2023-04-20T22:18:53.455Z,1.20
2023-04-20T22:23:57.911Z,1.20
2023-04-20T22:29:01.433Z,1.40
2023-04-20T22:34:04.843Z,1.25
2023-04-20T22:39:09.159Z,1.05
2023-04-20T22:44:13.310Z,1.58
2023-04-20T22:49:17.599Z,1.83
2023-04-20T22:54:21.353Z,1.35
2023-04-20T22:59:25.612Z,1.52
2023-04-20T23:04:30.051Z,1.55
2023-04-20T23:09:34.274Z,1.73
2023-04-20T23:14:44.330Z,1.50
2023-04-20T23:19:47.726Z,1.42
2023-04-20T23:24:51.770Z,1.77
2023-04-20T23:29:55.353Z,1.52
2023-04-20T23:34:58.914Z,1.73
2023-04-20T23:40:02.824Z,1.80
2023-04-20T23:45:07.191Z,1.10
2023-04-20T23:50:10.642Z,1.00
2023-04-20T23:55:14.362Z,1.35
